createdAt,value
2022-08-22T00:03:05.939Z,14.65
2022-08-22T00:03:18.311Z,13.54
2022-08-22T00:18:25.122Z,13.43
2022-08-22T00:53:36.942Z,13.12
2022-08-22T00:58:38.180Z,13.08
2022-08-22T01:03:39.707Z,13.04
2022-08-22T01:08:41.426Z,13.02
2022-08-22T01:13:42.955Z,12.98
2022-08-22T01:18:44.625Z,12.95
2022-08-22T01:23:45.824Z,12.92
2022-08-22T01:28:47.477Z,12.9
2022-08-22T01:33:49.613Z,12.87
2022-08-22T01:38:51.660Z,12.83
2022-08-22T01:43:59.505Z,12.8
2022-08-22T01:48:55.433Z,12.77
2022-08-22T01:53:56.698Z,12.75
2022-08-22T01:58:58.013Z,12.72
2022-08-22T02:03:59.886Z,12.71
2022-08-22T02:09:01.888Z,12.73
2022-08-22T02:14:03.761Z,12.72
2022-08-22T02:19:04.966Z,12.74
2022-08-22T02:24:06.644Z,12.74
2022-08-22T02:29:08.156Z,12.76
2022-08-22T02:34:09.761Z,12.78
2022-08-22T02:39:11.276Z,12.78
2022-08-22T02:44:13.232Z,12.78
2022-08-22T02:49:14.702Z,12.75
2022-08-22T02:54:16.558Z,12.73
2022-08-22T02:59:17.854Z,12.69
2022-08-22T03:04:19.084Z,12.67
2022-08-22T03:09:20.765Z,12.63
2022-08-22T03:14:22.993Z,12.59
2022-08-22T03:19:24.610Z,12.55
2022-08-22T03:24:26.068Z,12.49
2022-08-22T03:29:28.042Z,12.45
2022-08-22T03:34:29.429Z,12.41
2022-08-22T03:39:31.543Z,12.37
2022-08-22T03:44:33.601Z,12.33
2022-08-22T03:49:35.191Z,12.27
2022-08-22T03:54:37.032Z,12.22
2022-08-22T03:59:42.415Z,12.17
2022-08-22T04:04:40.565Z,12.13
2022-08-22T04:09:41.882Z,12.09
2022-08-22T04:14:43.925Z,12.08
2022-08-22T04:19:45.221Z,12.06
2022-08-22T04:24:49.004Z,12.03
2022-08-22T04:29:47.924Z,12.02
2022-08-22T04:34:49.530Z,12
2022-08-22T04:39:50.999Z,12.01
2022-08-22T04:44:52.673Z,12.01
2022-08-22T04:49:54.748Z,12
2022-08-22T04:54:56.760Z,12.03
2022-08-22T04:59:58.185Z,12.02
2022-08-22T05:04:59.422Z,12.02
2022-08-22T05:10:01.104Z,12.07
2022-08-22T05:15:02.238Z,12.12
2022-08-22T05:20:04.112Z,12.17
2022-08-22T05:25:05.967Z,12.19
2022-08-22T05:30:07.371Z,12.23
2022-08-22T05:35:09.278Z,12.3
2022-08-22T05:40:11.327Z,12.4
2022-08-22T05:45:12.938Z,12.49
2022-08-22T05:50:14.107Z,12.61
2022-08-22T05:55:16.097Z,12.7
2022-08-22T06:00:19.101Z,12.84
2022-08-22T06:05:19.682Z,13.01
2022-08-22T06:10:21.065Z,13.15
2022-08-22T06:15:22.465Z,13.32
2022-08-22T06:20:24.240Z,13.56
2022-08-22T06:25:26.333Z,13.8
2022-08-22T06:30:28.295Z,13.96
2022-08-22T06:35:29.558Z,14.09
2022-08-22T06:40:31.051Z,14.23
2022-08-22T06:45:32.330Z,14.39
2022-08-22T06:50:34.070Z,14.68
2022-08-22T06:55:35.905Z,15.02
2022-08-22T07:00:37.445Z,15.42
2022-08-22T07:05:38.937Z,15.85
2022-08-22T07:10:40.520Z,16.37
2022-08-22T07:15:42.107Z,16.62
2022-08-22T07:20:43.994Z,17
2022-08-22T07:25:45.954Z,17.53
2022-08-22T07:30:47.460Z,17.87
2022-08-22T07:35:52.982Z,18.34
2022-08-22T07:40:50.706Z,18.73
2022-08-22T07:45:52.471Z,19.2
2022-08-22T07:50:54.512Z,19.4
2022-08-22T07:55:56.259Z,19.6
2022-08-22T08:00:57.572Z,19.95
2022-08-22T08:05:58.952Z,20.12
2022-08-22T08:11:01.149Z,20.35
2022-08-22T08:16:02.207Z,20.77
2022-08-22T08:21:04.017Z,20.73
2022-08-22T08:26:05.848Z,21.02
2022-08-22T08:31:07.687Z,20.95
2022-08-22T08:36:09.502Z,21.11
2022-08-22T08:41:11.279Z,21.6
2022-08-22T08:46:12.634Z,21.84
2022-08-22T08:51:14.567Z,21.73
2022-08-22T08:56:19.568Z,22.01
2022-08-22T09:01:18.705Z,21.85
2022-08-22T09:06:20.079Z,22.24
2022-08-22T09:11:25.228Z,22.55
2022-08-22T09:16:24.031Z,22.42
2022-08-22T09:21:30.896Z,21.81
2022-08-22T09:26:27.380Z,22.26
2022-08-22T09:31:33.192Z,22.2
2022-08-22T09:36:31.577Z,22.37
2022-08-22T09:41:33.634Z,22.46
2022-08-22T09:46:36.641Z,22.41
2022-08-22T09:51:37.331Z,22.74
2022-08-22T09:56:39.206Z,22.84
2022-08-22T10:01:42.196Z,23.09
2022-08-22T10:06:42.760Z,23.43
2022-08-22T10:11:44.007Z,23.41
2022-08-22T10:16:45.921Z,23.2
2022-08-22T10:21:47.633Z,23.55
2022-08-22T10:26:49.235Z,23.03
2022-08-22T10:31:58.817Z,22.99
2022-08-22T10:36:52.667Z,23.01
2022-08-22T10:41:54.297Z,23.27
2022-08-22T10:46:57.120Z,22.95
2022-08-22T10:51:58.266Z,22.88
2022-08-22T10:56:59.713Z,22.93
2022-08-22T11:02:01.312Z,22.92
2022-08-22T11:07:02.946Z,23.28
2022-08-22T11:12:04.788Z,23.32
2022-08-22T11:17:12.099Z,23.23
2022-08-22T11:22:08.526Z,23.1
2022-08-22T11:27:12.892Z,23.12
2022-08-22T11:32:11.908Z,23.32
2022-08-22T11:37:13.946Z,23.38
2022-08-22T11:42:15.601Z,23.12
2022-08-22T11:47:17.769Z,23.3
2022-08-22T11:52:19.667Z,23.38
2022-08-22T11:57:21.441Z,23.53
2022-08-22T12:02:22.886Z,23.29
2022-08-22T12:07:24.130Z,23.65
2022-08-22T12:12:26.027Z,23.67
2022-08-22T12:17:50.642Z,23.39
2022-08-22T12:27:30.382Z,23.08
2022-08-22T12:32:32.187Z,23.31
2022-08-22T12:37:33.955Z,23.36
2022-08-22T12:42:35.604Z,23.15
2022-08-22T12:47:37.050Z,22.92
2022-08-22T12:52:38.378Z,22.92
2022-08-22T12:57:39.692Z,23.01
2022-08-22T13:02:41.149Z,23.29
2022-08-22T13:07:43.258Z,23.44
2022-08-22T13:12:44.256Z,23.4
2022-08-22T13:17:46.285Z,23.54
2022-08-22T13:22:48.351Z,23.46
2022-08-22T13:27:50.868Z,23.7
2022-08-22T13:32:51.841Z,23.67
2022-08-22T13:37:53.352Z,23.55
2022-08-22T13:42:54.926Z,23.6
2022-08-22T13:47:56.927Z,23.73
2022-08-22T13:52:58.133Z,23.55
2022-08-22T13:57:59.497Z,23.68
2022-08-22T14:03:01.331Z,23.92
2022-08-22T14:08:03.370Z,23.61
2022-08-22T14:13:04.967Z,23.66
2022-08-22T14:18:06.309Z,23.43
2022-08-22T14:23:08.241Z,23.65
2022-08-22T14:28:10.267Z,23.62
2022-08-22T14:33:12.094Z,23.71
2022-08-22T15:13:25.046Z,23.45
2022-08-22T15:18:26.331Z,23.3
2022-08-22T15:43:35.161Z,22.81
2022-08-22T15:48:36.725Z,22.79
2022-08-22T15:53:37.970Z,22.72
2022-08-22T15:58:39.647Z,22.68
2022-08-22T16:03:41.630Z,22.43
2022-08-22T16:08:43.308Z,22.14
2022-08-22T16:13:45.320Z,22.06
2022-08-22T16:18:46.949Z,22.02
2022-08-22T16:23:48.657Z,21.88
2022-08-22T16:28:58.507Z,21.87
2022-08-22T16:33:51.209Z,21.77
2022-08-22T16:38:53.302Z,21.68
2022-08-22T16:43:55.039Z,21.55
2022-08-22T16:48:56.017Z,21.46
2022-08-22T16:53:57.769Z,21.34
2022-08-22T16:59:09.810Z,21.23
2022-08-22T17:04:07.930Z,21.11
2022-08-22T17:09:09.667Z,20.98
2022-08-22T17:14:11.516Z,20.85
2022-08-22T17:19:13.512Z,20.73
2022-08-22T17:24:31.751Z,20.6
2022-08-22T17:29:16.450Z,20.53
2022-08-22T17:34:18.575Z,20.43
2022-08-22T17:39:20.130Z,20.33
2022-08-22T17:44:21.808Z,20.23
2022-08-22T17:49:23.576Z,20.09
2022-08-22T17:54:24.870Z,19.96
2022-08-22T17:59:26.097Z,19.86
2022-08-22T18:04:27.910Z,19.74
2022-08-22T18:09:29.386Z,19.62
2022-08-22T18:14:30.877Z,19.51
2022-08-22T18:19:32.835Z,19.41
2022-08-22T18:24:34.719Z,19.23
2022-08-22T18:29:36.037Z,19.1
2022-08-22T18:34:40.006Z,18.96
2022-08-22T18:39:42.517Z,18.71
2022-08-22T18:44:41.374Z,18.59
2022-08-22T18:49:42.602Z,18.45
2022-08-22T18:54:44.693Z,18.34
2022-08-22T18:59:46.534Z,18.15
2022-08-22T19:04:48.350Z,18.01
2022-08-22T19:09:49.522Z,17.87
2022-08-22T19:14:51.270Z,17.74
2022-08-22T19:19:53.298Z,17.57
2022-08-22T19:24:55.521Z,17.42
2022-08-22T19:29:57.134Z,17.31
2022-08-22T19:35:02.005Z,17.16
2022-08-22T19:40:01.119Z,17.03
2022-08-22T19:45:02.559Z,16.87
2022-08-22T19:50:05.519Z,16.71
2022-08-22T19:55:06.323Z,16.59
2022-08-22T20:00:08.164Z,16.45
2022-08-22T20:05:09.439Z,16.31
2022-08-22T20:10:10.756Z,16.17
2022-08-22T20:15:12.196Z,16.04
2022-08-22T20:20:17.199Z,15.9
2022-08-22T20:25:15.713Z,15.77
2022-08-22T20:30:16.764Z,15.66
2022-08-22T20:35:18.228Z,15.54
2022-08-22T20:40:21.966Z,15.43
2022-08-22T20:45:20.886Z,15.3
2022-08-22T20:50:22.279Z,15.17
2022-08-22T20:55:24.020Z,15.04
2022-08-22T21:00:25.782Z,14.93
2022-08-22T21:05:27.906Z,14.81
2022-08-22T21:10:29.545Z,14.69
2022-08-22T21:15:30.885Z,14.57
2022-08-22T21:20:32.663Z,14.46
2022-08-22T21:25:34.342Z,14.36
2022-08-22T21:30:35.984Z,14.23
2022-08-22T21:35:37.731Z,14.14
2022-08-22T21:40:38.898Z,14.04
2022-08-22T21:45:41.052Z,13.92
2022-08-22T21:50:42.508Z,13.83
2022-08-22T21:55:44.036Z,13.74
2022-08-22T22:15:50.028Z,13.4
2022-08-22T22:20:51.661Z,13.31
2022-08-22T22:25:53.654Z,13.24
2022-08-22T22:30:55.234Z,13.14
2022-08-22T22:35:56.810Z,13.08
2022-08-22T22:40:58.698Z,13.02
2022-08-22T22:46:01.204Z,12.95
2022-08-22T22:51:02.532Z,12.88
2022-08-22T22:56:04.490Z,12.8
2022-08-22T23:01:06.660Z,12.75
2022-08-22T23:06:08.177Z,12.69
2022-08-22T23:11:10.027Z,12.64
2022-08-22T23:16:11.944Z,12.58
2022-08-22T23:21:13.321Z,12.53
2022-08-22T23:26:14.598Z,12.5
2022-08-22T23:31:16.606Z,12.45
2022-08-22T23:36:17.803Z,12.39
2022-08-22T23:41:19.433Z,12.35
2022-08-22T23:46:21.036Z,12.3
2022-08-22T23:51:23.346Z,12.25
2022-08-22T23:56:24.657Z,12.22
